createdAt,value
2022-08-17T00:00:43.878Z,101139.16
2022-08-17T00:05:55.670Z,101128.13
2022-08-17T00:08:29.774Z,101131.25
2022-08-17T00:11:00.107Z,101140.66
2022-08-17T00:13:33.938Z,101141.44
2022-08-17T00:16:05.602Z,101145.13
2022-08-17T00:19:01.719Z,101158.50
2022-08-17T00:21:26.827Z,101148.06
2022-08-17T00:24:16.837Z,101152.88
2022-08-17T00:26:45.619Z,101150.97
2022-08-17T00:29:20.040Z,101151.91
2022-08-17T00:31:49.417Z,101155.03
2022-08-17T00:34:19.085Z,101156.50
2022-08-17T00:36:47.847Z,101168.22
2022-08-17T00:39:17.911Z,101161.03
2022-08-17T00:41:47.864Z,101154.81
2022-08-17T00:44:17.758Z,101168.88
2022-08-17T00:46:47.961Z,101167.84
2022-08-17T00:49:19.583Z,101168.09
2022-08-17T00:51:57.955Z,101164.22
2022-08-17T00:54:32.748Z,101165.66
2022-08-17T00:57:12.652Z,101178.69
2022-08-17T01:00:02.971Z,101184.91
2022-08-17T01:02:42.360Z,101180.34
2022-08-17T01:05:25.391Z,101182.84
2022-08-17T01:07:54.995Z,101190.50
2022-08-17T01:10:58.299Z,101189.44
2022-08-17T01:13:19.210Z,101200.31
2022-08-17T01:15:54.332Z,101195.97
2022-08-17T01:18:25.224Z,101199.88
2022-08-17T01:20:57.544Z,101200.50
2022-08-17T01:23:28.847Z,101202.38
2022-08-17T01:25:59.924Z,101198.47
2022-08-17T01:28:52.810Z,101204.22
2022-08-17T01:31:21.059Z,101207.28
2022-08-17T01:33:49.667Z,101213.63
2022-08-17T01:36:18.246Z,101213.75
2022-08-17T01:38:48.364Z,101213.06
2022-08-17T01:41:18.242Z,101211.94
2022-08-17T01:43:50.308Z,101211.50
2022-08-17T01:46:28.361Z,101215.44
2022-08-17T01:48:58.144Z,101219.53
2022-08-17T01:51:30.266Z,101221.88
2022-08-17T01:54:05.061Z,101224.94
2022-08-17T01:56:35.829Z,101225.28
2022-08-17T01:59:05.180Z,101219.00
2022-08-17T02:01:35.262Z,101222.81
2022-08-17T02:04:04.657Z,101209.31
2022-08-17T02:06:44.950Z,101215.38
2022-08-17T02:09:17.046Z,101209.88
2022-08-17T02:11:47.167Z,101208.19
2022-08-17T02:14:15.820Z,101210.31
2022-08-17T02:16:44.399Z,101211.50
2022-08-17T02:19:15.615Z,101207.53
2022-08-17T02:21:47.507Z,101212.59
2022-08-17T02:24:59.385Z,101214.69
2022-08-17T02:27:10.734Z,101215.00
2022-08-17T02:29:39.867Z,101222.78
2022-08-17T02:32:25.311Z,101217.78
2022-08-17T02:34:56.803Z,101213.03
2022-08-17T02:37:29.777Z,101221.53
2022-08-17T02:40:00.151Z,101217.41
2022-08-17T02:42:34.067Z,101216.66
2022-08-17T02:45:03.503Z,101225.25
2022-08-17T02:47:32.341Z,101224.56
2022-08-17T02:50:01.412Z,101235.56
2022-08-17T02:52:43.038Z,101235.16
2022-08-17T02:55:18.129Z,101230.91
2022-08-17T02:57:47.084Z,101235.22
2022-08-17T03:00:21.198Z,101239.09
2022-08-17T03:02:51.008Z,101238.69
2022-08-17T03:05:25.457Z,101244.56
2022-08-17T03:07:55.198Z,101255.59
2022-08-17T03:10:29.669Z,101268.72
2022-08-17T03:12:59.546Z,101286.63
2022-08-17T03:15:31.446Z,101300.41
2022-08-17T03:18:00.670Z,101300.78
2022-08-17T03:20:32.117Z,101299.72
2022-08-17T03:23:02.733Z,101299.78
2022-08-17T03:25:36.650Z,101307.31
2022-08-17T03:28:07.436Z,101316.63
2022-08-17T03:30:37.104Z,101341.59
2022-08-17T03:33:10.281Z,101368.28
2022-08-17T03:35:41.364Z,101390.25
2022-08-17T03:38:12.173Z,101424.38
2022-08-17T03:40:59.108Z,101480.47
2022-08-17T03:43:31.656Z,101527.41
2022-08-17T03:46:27.375Z,101552.22
2022-08-17T03:49:15.186Z,101568.69
2022-08-17T03:52:01.341Z,101600.06
2022-08-17T03:54:47.325Z,101626.47
2022-08-17T03:57:17.514Z,101665.41
2022-08-17T03:59:46.053Z,101703.03
2022-08-17T04:02:25.312Z,101737.25
2022-08-17T04:04:54.248Z,101745.72
2022-08-17T04:07:25.785Z,101764.53
2022-08-17T04:09:54.870Z,101781.22
2022-08-17T04:12:25.837Z,101805.34
2022-08-17T04:14:55.245Z,101822.63
2022-08-17T04:17:27.614Z,101828.91
2022-08-17T04:19:57.213Z,101850.53
2022-08-17T04:22:30.354Z,101859.97
2022-08-17T04:25:00.351Z,101870.63
2022-08-17T04:27:30.422Z,101865.28
2022-08-17T04:29:59.579Z,101872.81
2022-08-17T04:33:03.409Z,101867.63
2022-08-17T04:35:20.873Z,101879.25
2022-08-17T04:37:53.256Z,101882.88
2022-08-17T04:40:40.610Z,101884.06
2022-08-17T04:43:13.165Z,101882.53
2022-08-17T04:45:54.952Z,101916.09
2022-08-17T04:48:36.320Z,101908.75
2022-08-17T04:51:11.140Z,101905.41
2022-08-17T04:53:41.405Z,101898.53
2022-08-17T04:56:11.884Z,101905.78
2022-08-17T04:58:50.076Z,101899.03
2022-08-17T05:01:23.284Z,101899.78
2022-08-17T05:03:53.654Z,101902.31
2022-08-17T05:06:22.983Z,101899.19
2022-08-17T05:08:51.670Z,101905.44
2022-08-17T05:11:20.424Z,101897.59
2022-08-17T05:13:51.110Z,101893.84
2022-08-17T05:16:21.289Z,101890.84
2022-08-17T05:18:50.924Z,101899.78
2022-08-17T05:21:20.585Z,101885.66
2022-08-17T05:23:53.955Z,101882.66
2022-08-17T05:26:27.221Z,101891.00
2022-08-17T05:29:02.593Z,101883.91
2022-08-17T05:31:32.499Z,101888.09
2022-08-17T05:34:01.317Z,101875.09
2022-08-17T05:36:41.809Z,101864.72
2022-08-17T05:39:16.340Z,101856.69
2022-08-17T05:41:47.893Z,101852.94
2022-08-17T05:44:17.917Z,101845.38
2022-08-17T05:46:51.318Z,101838.34
2022-08-17T05:49:27.144Z,101824.03
2022-08-17T05:52:19.735Z,101818.03
2022-08-17T05:55:04.253Z,101811.84
2022-08-17T05:57:53.488Z,101796.25
2022-08-17T06:00:30.575Z,101785.28
2022-08-17T06:03:16.969Z,101766.25
2022-08-17T06:05:59.838Z,101745.72
2022-08-17T06:08:42.164Z,101730.22
2022-08-17T06:11:20.473Z,101712.81
2022-08-17T06:14:04.844Z,101704.28
2022-08-17T06:16:39.414Z,101684.94
2022-08-17T06:19:15.697Z,101673.94
2022-08-17T06:21:49.181Z,101656.38
2022-08-17T06:24:27.475Z,101645.66
2022-08-17T06:26:58.355Z,101621.88
2022-08-17T06:29:39.068Z,101599.84
2022-08-17T06:32:12.175Z,101576.44
2022-08-17T06:34:44.720Z,101566.19
2022-08-17T06:37:42.893Z,101543.44
2022-08-17T06:40:27.962Z,101535.81
2022-08-17T06:43:07.050Z,101529.38
2022-08-17T06:45:40.055Z,101510.72
2022-08-17T06:48:16.366Z,101488.91
2022-08-17T06:50:49.147Z,101472.63
2022-08-17T06:53:25.222Z,101463.53
2022-08-17T06:56:00.906Z,101450.38
2022-08-17T06:58:31.927Z,101441.00
2022-08-17T07:01:08.057Z,101432.59
2022-08-17T07:03:41.966Z,101422.13
2022-08-17T07:06:16.133Z,101417.28
2022-08-17T07:08:58.223Z,101401.19
2022-08-17T07:11:33.119Z,101393.22
2022-08-17T07:14:25.151Z,101388.53
2022-08-17T07:16:56.475Z,101380.25
2022-08-17T07:19:32.673Z,101378.56
2022-08-17T07:22:09.054Z,101376.97
2022-08-17T07:24:47.356Z,101378.13
2022-08-17T07:27:20.964Z,101372.84
2022-08-17T07:29:54.872Z,101362.03
2022-08-17T07:32:28.822Z,101348.66
2022-08-17T07:35:17.539Z,101344.78
2022-08-17T07:37:53.987Z,101335.25
2022-08-17T07:40:27.558Z,101328.06
2022-08-17T07:43:25.198Z,101328.03
2022-08-17T07:46:35.094Z,101319.56
2022-08-17T07:49:24.191Z,101312.03
2022-08-17T07:52:13.518Z,101303.22
2022-08-17T07:54:49.208Z,101291.75
2022-08-17T07:57:39.528Z,101269.41
2022-08-17T08:00:26.703Z,101264.06
2022-08-17T08:03:14.753Z,101260.47
2022-08-17T08:05:52.219Z,101249.47
2022-08-17T08:08:29.098Z,101233.88
2022-08-17T08:11:12.325Z,101231.19
2022-08-17T08:13:43.781Z,101226.56
2022-08-17T08:16:27.595Z,101219.25
2022-08-17T08:18:58.610Z,101220.00
2022-08-17T08:21:37.382Z,101225.47
2022-08-17T08:24:30.143Z,101228.63
2022-08-17T08:27:12.983Z,101231.28
2022-08-17T08:29:54.033Z,101213.88
2022-08-17T08:32:34.017Z,101211.41
2022-08-17T08:35:08.538Z,101215.28
2022-08-17T08:37:49.490Z,101227.50
2022-08-17T08:40:38.452Z,101213.84
2022-08-17T08:43:18.441Z,101218.50
2022-08-17T08:45:56.649Z,101212.50
2022-08-17T08:48:58.461Z,101218.06
2022-08-17T08:51:40.995Z,101202.41
2022-08-17T08:54:26.566Z,101196.31
2022-08-17T08:57:24.321Z,101185.75
2022-08-17T09:00:03.929Z,101161.09
2022-08-17T09:03:20.111Z,101153.41
2022-08-17T09:06:06.082Z,101143.94
2022-08-17T09:09:05.807Z,101156.28
2022-08-17T09:12:01.211Z,101144.25
2022-08-17T09:14:46.662Z,101131.44
2022-08-17T09:17:20.280Z,101131.06
2022-08-17T09:19:54.728Z,101123.75
2022-08-17T09:22:33.325Z,101128.22
2022-08-17T09:25:10.716Z,101114.63
2022-08-17T09:27:51.810Z,101108.56
2022-08-17T09:30:23.730Z,101123.88
2022-08-17T09:32:57.612Z,101114.03
2022-08-17T09:35:32.748Z,101115.72
2022-08-17T09:38:17.600Z,101111.88
2022-08-17T09:40:52.929Z,101109.63
2022-08-17T09:43:32.675Z,101106.97
2022-08-17T09:46:09.049Z,101095.38
2022-08-17T09:48:42.844Z,101098.06
2022-08-17T09:51:16.686Z,101088.28
2022-08-17T09:53:45.708Z,101085.78
2022-08-17T09:56:36.457Z,101072.84
2022-08-17T09:59:19.888Z,101077.16
2022-08-17T10:01:56.492Z,101069.06
2022-08-17T10:04:40.447Z,101061.94
2022-08-17T10:07:16.612Z,101078.97
2022-08-17T10:09:58.610Z,101072.69
2022-08-17T10:12:39.589Z,101079.09
2022-08-17T10:15:32.729Z,101068.81
2022-08-17T10:18:31.816Z,101070.16
2022-08-17T10:21:24.348Z,101059.13
2022-08-17T10:24:15.700Z,101068.66
2022-08-17T10:26:57.183Z,101067.94
2022-08-17T10:29:40.825Z,101068.25
2022-08-17T10:32:26.937Z,101074.63
2022-08-17T10:35:30.263Z,101069.84
2022-08-17T10:38:26.755Z,101076.03
2022-08-17T10:40:59.848Z,101064.88
2022-08-17T10:43:36.858Z,101063.28
2022-08-17T10:46:31.253Z,101054.09
2022-08-17T10:49:23.476Z,101048.97
2022-08-17T10:51:55.427Z,101046.00
2022-08-17T10:54:40.858Z,101055.56
2022-08-17T10:57:42.208Z,101058.53
2022-08-17T11:00:36.238Z,101048.44
2022-08-17T11:03:18.719Z,101052.91
2022-08-17T11:05:56.599Z,101059.03
2022-08-17T11:08:57.541Z,101056.47
2022-08-17T11:11:54.481Z,101057.53
2022-08-17T11:14:37.976Z,101058.84
2022-08-17T11:17:21.994Z,101054.19
2022-08-17T11:20:08.880Z,101046.72
2022-08-17T11:23:10.934Z,101048.56
2022-08-17T11:25:44.982Z,101047.63
2022-08-17T11:28:19.449Z,101047.34
2022-08-17T11:30:51.372Z,101043.53
2022-08-17T11:34:03.658Z,101042.31
2022-08-17T11:37:07.642Z,101043.69
2022-08-17T11:39:56.078Z,101049.50
2022-08-17T11:42:38.619Z,101044.16
2022-08-17T11:45:31.949Z,101043.91
2022-08-17T11:48:34.640Z,101043.44
2022-08-17T11:51:34.548Z,101043.53
2022-08-17T11:54:31.636Z,101048.97
2022-08-17T11:57:00.017Z,101037.19
2022-08-17T12:00:06.309Z,101033.22
2022-08-17T12:02:47.495Z,101046.59
2022-08-17T12:05:34.089Z,101036.06
2022-08-17T12:08:21.636Z,101040.44
2022-08-17T12:11:00.327Z,101039.25
2022-08-17T12:13:38.539Z,101038.75
2022-08-17T12:16:14.881Z,101041.75
2022-08-17T12:18:51.433Z,101038.16
2022-08-17T12:21:46.225Z,101037.94
2022-08-17T12:24:29.300Z,101033.00
2022-08-17T12:27:00.700Z,101034.59
2022-08-17T12:29:35.703Z,101038.69
2022-08-17T12:32:16.672Z,101029.44
2022-08-17T12:34:47.667Z,101032.06
2022-08-17T12:37:19.969Z,101028.81
2022-08-17T12:39:57.911Z,101031.19
2022-08-17T12:42:31.174Z,101025.94
2022-08-17T12:45:00.385Z,101016.09
2022-08-17T12:47:31.940Z,101019.13
2022-08-17T12:50:28.171Z,101014.16
2022-08-17T12:53:02.039Z,101015.63
2022-08-17T12:55:38.907Z,101001.88
2022-08-17T12:58:14.468Z,101004.03
2022-08-17T13:00:50.810Z,100994.09
2022-08-17T13:03:23.605Z,100993.91
2022-08-17T13:05:58.932Z,100990.22
2022-08-17T13:08:32.389Z,100987.94
2022-08-17T13:11:03.082Z,100982.56
2022-08-17T13:13:33.781Z,100979.06
2022-08-17T13:16:04.413Z,100975.09
2022-08-17T13:18:40.777Z,100974.72
2022-08-17T13:21:18.713Z,100974.25
2022-08-17T13:23:57.048Z,100974.88
2022-08-17T13:26:30.460Z,100983.13
2022-08-17T13:29:00.090Z,100987.53
2022-08-17T13:31:46.583Z,100993.22
2022-08-17T13:34:34.768Z,100987.13
2022-08-17T13:37:35.806Z,100988.84
2022-08-17T13:40:30.192Z,100984.16
2022-08-17T13:42:59.549Z,100983.50
2022-08-17T13:45:57.530Z,100970.28
2022-08-17T13:48:32.035Z,100976.31
2022-08-17T13:51:25.861Z,100969.72
2022-08-17T13:54:01.662Z,100977.53
2022-08-17T13:56:47.929Z,100981.25
2022-08-17T13:59:53.596Z,100976.69
2022-08-17T14:02:17.163Z,100975.13
2022-08-17T14:04:47.386Z,100977.38
2022-08-17T14:07:30.130Z,100972.44
2022-08-17T14:10:02.360Z,100974.50
2022-08-17T14:12:34.193Z,100961.75
2022-08-17T14:15:03.667Z,100959.03
2022-08-17T14:17:37.936Z,100958.03
2022-08-17T14:20:11.014Z,100946.44
2022-08-17T14:22:44.320Z,100942.81
2022-08-17T14:25:15.642Z,100943.88
2022-08-17T14:27:52.614Z,100944.97
2022-08-17T14:30:29.055Z,100948.16
2022-08-17T14:32:59.542Z,100949.56
2022-08-17T14:35:29.519Z,100939.75
2022-08-17T14:37:59.533Z,100937.59
2022-08-17T14:40:28.159Z,100938.28
2022-08-17T14:42:57.931Z,100942.22
2022-08-17T14:45:32.075Z,100947.72
2022-08-17T14:48:05.737Z,100934.03
2022-08-17T14:50:36.020Z,100936.84
2022-08-17T14:53:08.157Z,100941.34
2022-08-17T14:55:39.998Z,100929.91
2022-08-17T14:58:09.558Z,100929.09
2022-08-17T15:00:39.421Z,100922.75
2022-08-17T15:03:08.172Z,100916.81
2022-08-17T15:05:39.863Z,100921.53
2022-08-17T15:08:10.078Z,100925.09
2022-08-17T15:10:40.185Z,100921.03
2022-08-17T15:13:17.271Z,100920.13
2022-08-17T15:15:46.181Z,100923.50
2022-08-17T15:18:15.153Z,100915.59
2022-08-17T15:20:45.296Z,100919.00
2022-08-17T15:23:17.054Z,100919.16
2022-08-17T15:25:47.354Z,100912.66
2022-08-17T15:28:16.661Z,100908.53
2022-08-17T15:30:46.127Z,100910.44
2022-08-17T15:33:16.249Z,100912.53
2022-08-17T15:35:46.016Z,100919.63
2022-08-17T15:38:16.741Z,100920.22
2022-08-17T15:40:48.143Z,100921.19
2022-08-17T15:43:23.308Z,100918.53
2022-08-17T15:46:00.455Z,100916.59
2022-08-17T15:48:41.422Z,100918.53
2022-08-17T15:51:11.831Z,100912.03
2022-08-17T15:53:43.308Z,100907.06
2022-08-17T15:56:13.678Z,100910.75
2022-08-17T15:58:43.938Z,100913.63
2022-08-17T16:01:16.731Z,100905.59
2022-08-17T16:04:05.229Z,100909.03
2022-08-17T16:06:37.238Z,100899.06
2022-08-17T16:09:07.806Z,100899.44
2022-08-17T16:11:36.824Z,100901.31
2022-08-17T16:14:05.510Z,100903.44
2022-08-17T16:16:34.376Z,100889.63
2022-08-17T16:19:03.866Z,100902.59
2022-08-17T16:21:42.917Z,100898.56
2022-08-17T16:24:14.813Z,100893.56
2022-08-17T16:26:43.845Z,100890.81
2022-08-17T16:29:12.484Z,100895.22
2022-08-17T16:31:41.889Z,100886.75
2022-08-17T16:34:17.333Z,100891.88
2022-08-17T16:36:54.709Z,100881.91
2022-08-17T16:39:27.406Z,100882.69
2022-08-17T16:41:56.459Z,100892.25
2022-08-17T16:44:26.005Z,100886.59
2022-08-17T16:46:54.838Z,100888.94
2022-08-17T16:49:35.332Z,100887.69
2022-08-17T16:52:09.839Z,100889.78
2022-08-17T16:54:44.314Z,100893.88
2022-08-17T16:57:14.889Z,100889.38
2022-08-17T16:59:48.228Z,100892.34
2022-08-17T17:02:27.621Z,100903.59
2022-08-17T17:05:03.570Z,100904.97
2022-08-17T17:07:55.522Z,100900.94
2022-08-17T17:10:33.390Z,100901.78
2022-08-17T17:13:04.257Z,100923.81
2022-08-17T17:15:46.390Z,100954.38
2022-08-17T17:18:16.937Z,100974.59
2022-08-17T17:20:50.795Z,100969.97
2022-08-17T17:23:33.251Z,100966.16
2022-08-17T17:26:12.655Z,100965.56
2022-08-17T17:28:54.934Z,100961.44
2022-08-17T17:31:32.716Z,100952.22
2022-08-17T17:34:08.621Z,100962.78
2022-08-17T17:36:41.521Z,100951.78
2022-08-17T17:39:14.485Z,100956.84
2022-08-17T17:41:54.020Z,100972.34
2022-08-17T17:44:27.524Z,100981.25
2022-08-17T17:46:59.519Z,100981.13
2022-08-17T17:49:32.274Z,100977.72
2022-08-17T17:52:14.395Z,100968.69
2022-08-17T17:54:58.990Z,100979.22
2022-08-17T17:57:41.383Z,100970.75
2022-08-17T18:00:15.071Z,100977.88
2022-08-17T18:03:04.211Z,100964.84
2022-08-17T18:05:45.234Z,100962.63
2022-08-17T18:08:32.101Z,100959.78
2022-08-17T18:11:13.645Z,100967.88
2022-08-17T18:13:59.346Z,100973.69
2022-08-17T18:16:32.173Z,100980.56
2022-08-17T18:19:02.127Z,100988.47
2022-08-17T18:21:37.824Z,100992.25
2022-08-17T18:24:10.487Z,100994.72
2022-08-17T18:26:58.398Z,100983.84
2022-08-17T18:29:35.885Z,100993.53
2022-08-17T18:32:29.300Z,101001.88
2022-08-17T18:35:00.667Z,101008.59
2022-08-17T18:37:40.201Z,101007.41
2022-08-17T18:40:32.604Z,101014.69
2022-08-17T18:43:13.965Z,101008.66
2022-08-17T18:45:47.891Z,101020.66
2022-08-17T18:48:24.828Z,101017.91
2022-08-17T18:50:56.292Z,101021.09
2022-08-17T18:53:35.132Z,101030.06
2022-08-17T18:56:27.768Z,101026.84
2022-08-17T18:59:24.463Z,101040.78
2022-08-17T19:02:31.430Z,101041.66
2022-08-17T19:05:16.199Z,101053.94
2022-08-17T19:07:48.777Z,101059.88
2022-08-17T19:10:24.474Z,101061.31
2022-08-17T19:13:00.771Z,101065.91
2022-08-17T19:15:36.418Z,101067.50
2022-08-17T19:18:15.922Z,101068.56
2022-08-17T19:20:49.402Z,101066.81
2022-08-17T19:23:24.854Z,101076.75
2022-08-17T19:26:01.287Z,101089.13
2022-08-17T19:28:36.104Z,101101.53
2022-08-17T19:31:15.023Z,101109.78
2022-08-17T19:33:48.082Z,101092.22
2022-08-17T19:36:34.546Z,101089.88
2022-08-17T19:39:11.442Z,101097.63
2022-08-17T19:41:49.100Z,101088.88
2022-08-17T19:44:47.160Z,101094.38
2022-08-17T19:47:43.058Z,101099.31
2022-08-17T19:50:16.228Z,101093.34
2022-08-17T19:52:50.428Z,101093.34
2022-08-17T19:55:31.672Z,101088.19
2022-08-17T19:58:08.036Z,101083.03
2022-08-17T20:00:47.537Z,101081.50
2022-08-17T20:03:22.133Z,101082.78
2022-08-17T20:06:12.163Z,101083.06
2022-08-17T20:08:56.457Z,101077.88
2022-08-17T20:11:32.579Z,101070.94
2022-08-17T20:14:05.680Z,101085.16
2022-08-17T20:16:35.207Z,101085.16
2022-08-17T20:19:08.084Z,101089.00
2022-08-17T20:21:43.340Z,101091.31
2022-08-17T20:24:25.220Z,101092.88
2022-08-17T20:26:59.669Z,101095.72
2022-08-17T20:29:37.104Z,101091.63
2022-08-17T20:32:22.743Z,101098.09
2022-08-17T20:35:07.723Z,101108.91
2022-08-17T20:37:43.241Z,101112.53
2022-08-17T20:40:28.472Z,101116.16
2022-08-17T20:42:58.906Z,101120.03
2022-08-17T20:45:54.209Z,101122.09
2022-08-17T20:48:37.887Z,101123.34
2022-08-17T20:51:27.336Z,101126.72
2022-08-17T20:54:23.165Z,101122.84
2022-08-17T20:56:57.866Z,101135.22
2022-08-17T21:00:15.598Z,101135.50
2022-08-17T21:02:46.305Z,101145.03
2022-08-17T21:05:57.396Z,101147.56
2022-08-17T21:08:36.831Z,101156.31
2022-08-17T21:12:04.344Z,101173.06
2022-08-17T21:14:59.813Z,101197.84
2022-08-17T21:17:42.561Z,101227.13
2022-08-17T21:20:34.678Z,101249.03
2022-08-17T21:23:21.680Z,101247.38
2022-08-17T21:26:13.524Z,101247.94
2022-08-17T21:29:14.715Z,101253.06
2022-08-17T21:32:23.000Z,101264.06
2022-08-17T21:35:24.119Z,101275.50
2022-08-17T21:37:57.529Z,101284.16
2022-08-17T21:40:32.040Z,101280.13
2022-08-17T21:43:08.194Z,101279.34
2022-08-17T21:45:42.598Z,101288.81
2022-08-17T21:48:17.862Z,101286.25
2022-08-17T21:51:02.231Z,101281.00
2022-08-17T21:53:44.565Z,101283.28
2022-08-17T21:56:24.537Z,101277.38
2022-08-17T21:59:01.330Z,101278.53
2022-08-17T22:01:35.523Z,101290.03
2022-08-17T22:04:08.947Z,101289.78
2022-08-17T22:06:52.654Z,101275.00
2022-08-17T22:09:32.328Z,101283.47
2022-08-17T22:12:06.124Z,101292.22
2022-08-17T22:14:53.345Z,101292.63
2022-08-17T22:17:29.365Z,101290.25
2022-08-17T22:20:02.570Z,101281.47
2022-08-17T22:23:00.946Z,101287.94
2022-08-17T22:25:31.146Z,101277.28
2022-08-17T22:28:03.003Z,101276.31
2022-08-17T22:30:38.426Z,101278.78
2022-08-17T22:33:37.727Z,101284.41
2022-08-17T22:36:22.103Z,101284.16
2022-08-17T22:38:52.708Z,101277.25
2022-08-17T22:41:42.487Z,101280.41
2022-08-17T22:44:18.902Z,101279.34
2022-08-17T22:46:55.561Z,101284.44
2022-08-17T22:49:32.999Z,101286.31
2022-08-17T22:52:04.527Z,101286.59
2022-08-17T22:54:52.253Z,101280.63
2022-08-17T22:57:41.789Z,101281.38
2022-08-17T23:00:29.927Z,101276.50
2022-08-17T23:03:12.746Z,101287.00
2022-08-17T23:05:45.611Z,101285.94
2022-08-17T23:08:20.946Z,101292.22
2022-08-17T23:10:50.450Z,101281.66
2022-08-17T23:13:21.231Z,101279.34
2022-08-17T23:15:55.014Z,101268.50
2022-08-17T23:18:23.696Z,101272.81
2022-08-17T23:20:54.957Z,101274.59
2022-08-17T23:23:24.039Z,101274.59
2022-08-17T23:25:52.672Z,101268.38
2022-08-17T23:28:22.054Z,101269.94
2022-08-17T23:30:50.985Z,101279.25
2022-08-17T23:33:22.425Z,101279.75
2022-08-17T23:35:54.999Z,101276.97
2022-08-17T23:38:27.028Z,101281.31
2022-08-17T23:41:04.364Z,101286.44
2022-08-17T23:43:36.510Z,101288.50
2022-08-17T23:46:07.224Z,101283.00
2022-08-17T23:48:41.809Z,101287.69
2022-08-17T23:51:19.000Z,101291.97
2022-08-17T23:53:52.688Z,101293.25
2022-08-17T23:56:24.626Z,101289.28
2022-08-17T23:58:55.392Z,101290.78
